地図

経路データ

SID SEASON NUMBER BASIN SUBBASIN NAME ISO_TIME NATURE LAT LON WMO_WIND WMO_PRES WMO_AGENCY TRACK_TYPE DIST2LAND LANDFALL IFLAG USA_AGENCY USA_ATCF_ID USA_LAT USA_LON USA_RECORD USA_STATUS USA_WIND USA_PRES USA_SSHS USA_R34_NE USA_R34_SE USA_R34_SW USA_R34_NW USA_R50_NE USA_R50_SE USA_R50_SW USA_R50_NW USA_R64_NE USA_R64_SE USA_R64_SW USA_R64_NW USA_POCI USA_ROCI USA_RMW USA_EYE TOKYO_LAT TOKYO_LON TOKYO_GRADE TOKYO_WIND TOKYO_PRES TOKYO_R50_DIR TOKYO_R50_LONG TOKYO_R50_SHORT TOKYO_R30_DIR TOKYO_R30_LONG TOKYO_R30_SHORT TOKYO_LAND CMA_LAT CMA_LON CMA_CAT CMA_WIND CMA_PRES HKO_LAT HKO_LON HKO_CAT HKO_WIND HKO_PRES NEWDELHI_LAT NEWDELHI_LON NEWDELHI_GRADE NEWDELHI_WIND NEWDELHI_PRES NEWDELHI_CI NEWDELHI_DP NEWDELHI_POCI REUNION_LAT REUNION_LON REUNION_TYPE REUNION_WIND REUNION_PRES REUNION_TNUM REUNION_CI REUNION_RMW REUNION_R34_NE REUNION_R34_SE REUNION_R34_SW REUNION_R34_NW REUNION_R50_NE REUNION_R50_SE REUNION_R50_SW REUNION_R50_NW REUNION_R64_NE REUNION_R64_SE REUNION_R64_SW REUNION_R64_NW BOM_LAT BOM_LON BOM_TYPE BOM_WIND BOM_PRES BOM_TNUM BOM_CI BOM_RMW BOM_R34_NE BOM_R34_SE BOM_R34_SW BOM_R34_NW BOM_R50_NE BOM_R50_SE BOM_R50_SW BOM_R50_NW BOM_R64_NE BOM_R64_SE BOM_R64_SW BOM_R64_NW BOM_ROCI BOM_POCI BOM_EYE BOM_POS_METHOD BOM_PRES_METHOD NADI_LAT NADI_LON NADI_CAT NADI_WIND NADI_PRES WELLINGTON_LAT WELLINGTON_LON WELLINGTON_WIND WELLINGTON_PRES DS824_LAT DS824_LON DS824_STAGE DS824_WIND DS824_PRES TD9636_LAT TD9636_LON TD9636_STAGE TD9636_WIND TD9636_PRES TD9635_LAT TD9635_LON TD9635_WIND TD9635_PRES TD9635_ROCI NEUMANN_LAT NEUMANN_LON NEUMANN_CLASS NEUMANN_WIND NEUMANN_PRES MLC_LAT MLC_LON MLC_CLASS MLC_WIND MLC_PRES USA_GUST BOM_GUST BOM_GUST_PER REUNION_GUST REUNION_GUST_PER USA_SEAHGT USA_SEARAD_NE USA_SEARAD_SE USA_SEARAD_SW USA_SEARAD_NW STORM_SPEED STORM_DIR
2021017S13062 2021 4 SI MM ELOISE 2021-01-17 06:00:00 NR -12.6000 62.1000 PROVISIONAL 961 946 O_____________ tcvitals SI122021 -12.6000 62.1000 35 1000 0 65 55 55 65 1004 200 40 7 270
2021017S13062 2021 4 SI MM ELOISE 2021-01-17 09:00:00 NR -12.6023 61.7271 PROVISIONAL 941 908 P_____________ SI122021 -12.6023 61.7271 35 1000 0 65 55 55 65 1004 200 40 9 264
2021017S13062 2021 4 SI MM ELOISE 2021-01-17 12:00:00 NR -12.7000 61.2000 PROVISIONAL 908 859 O_____________ tcvitals SI122021 -12.7000 61.2000 35 1000 0 65 55 55 65 1004 200 40 13 255
2021017S13062 2021 4 SI MM ELOISE 2021-01-17 15:00:00 NR -12.9429 60.4304 PROVISIONAL 855 798 P_____________ SI122021 -12.9429 60.4304 37 1000 0 67 57 57 65 1005 200 35 16 252
2021017S13062 2021 4 SI MM ELOISE 2021-01-17 18:00:00 NR -13.2000 59.6000 PROVISIONAL 798 773 O_____________ tcvitals SI122021 -13.2000 59.6000 39 1001 0 70 60 60 65 1007 200 30 15 255
2021017S13062 2021 4 SI MM ELOISE 2021-01-17 21:00:00 NR -13.3144 58.9571 PROVISIONAL 773 752 P_____________ SI122021 -13.3144 58.9571 42 999 0 72 62 60 67 1006 212 30 13 261
2021017S13062 2021 4 SI MM ELOISE 2021-01-18 00:00:00 NR -13.4000 58.3000 PROVISIONAL 752 738 O_____________ tcvitals SI122021 -13.4000 58.3000 45 997 0 75 65 60 70 1005 225 30 15 261
2021017S13062 2021 4 SI MM ELOISE 2021-01-18 03:00:00 NR -13.5501 57.4726 PROVISIONAL 727 678 P_____________ SI122021 -13.5501 57.4726 45 997 0 75 65 60 70 1005 225 30 17 260
2021017S13062 2021 4 SI MM ELOISE 2021-01-18 06:00:00 NR -13.7000 56.6000 PROVISIONAL 678 602 O_____________ tcvitals SI122021 -13.7000 56.6000 45 998 0 75 65 60 70 1006 225 30 16 261
2021017S13062 2021 4 SI MM ELOISE 2021-01-18 09:00:00 NR -13.8069 55.8223 PROVISIONAL 591 516 P_____________ SI122021 -13.8069 55.8223 45 998 0 75 65 60 70 1006 225 30 16 263
2021017S13062 2021 4 SI MM ELOISE 2021-01-18 12:00:00 NR -13.9000 55.0000 PROVISIONAL 505 400 O_____________ tcvitals SI122021 -13.9000 55.0000 45 998 0 75 65 60 70 1006 225 30 18 264
2021017S13062 2021 4 SI MM ELOISE 2021-01-18 15:00:00 NR -14.0006 53.9701 PROVISIONAL 400 295 P_____________ SI122021 -14.0006 53.9701 48 997 0 87 70 85 75 1006 227 32 20 264
2021017S13062 2021 4 SI MM ELOISE 2021-01-18 18:00:00 NR -14.1000 53.0000 PROVISIONAL 295 223 O_____________ tcvitals SI122021 -14.1000 53.0000 51 996 0 100 75 110 80 1006 230 35 17 263
2021017S13062 2021 4 SI MM ELOISE 2021-01-18 21:00:00 NR -14.2072 52.2576 PROVISIONAL 223 172 P_____________ SI122021 -14.2072 52.2576 48 997 0 97 80 110 82 1006 230 37 12 260
2021017S13062 2021 4 SI MM ELOISE 2021-01-19 00:00:00 NR -14.3000 51.8000 PROVISIONAL 172 163 O_____________ tcvitals SI122021 -14.3000 51.8000 45 998 0 95 85 110 85 1006 230 40 5 260
2021017S13062 2021 4 SI MM ELOISE 2021-01-19 03:00:00 NR -14.3047 51.7122 PROVISIONAL 163 157 P_____________ SI122021 -14.3047 51.7122 45 998 0 95 85 100 85 1007 217 40 1 223
2021017S13062 2021 4 SI MM ELOISE 2021-01-19 06:00:00 NR -14.4000 51.7000 PROVISIONAL 157 106 O_____________ tcvitals SI122021 -14.4000 51.7000 45 998 0 95 85 90 85 1008 205 40 6 211
2021017S13062 2021 4 SI MM ELOISE 2021-01-19 09:00:00 NR -14.8000 51.4104 PROVISIONAL 106 53 P_____________ SI122021 -14.8000 51.4104 48 996 0 90 82 82 77 1007 197 35 11 220
2021017S13062 2021 4 SI MM ELOISE 2021-01-19 12:00:00 NR -15.2000 51.0000 PROVISIONAL 53 10 O_____________ tcvitals SI122021 -15.2000 51.0000 51 994 0 85 80 75 70 1006 190 30 10 240
2021017S13062 2021 4 SI MM ELOISE 2021-01-19 15:00:00 NR -15.2951 50.5347 PROVISIONAL 0 0 P_____________ SI122021 -15.2951 50.5347 48 995 0 90 80 82 75 1006 185 30 9 263
2021017S13062 2021 4 SI MM ELOISE 2021-01-19 18:00:00 NR -15.3000 50.1000 PROVISIONAL 0 0 O_____________ tcvitals SI122021 -15.3000 50.1000 45 996 0 95 80 90 80 1006 180 30 7 259
2021017S13062 2021 4 SI MM ELOISE 2021-01-19 21:00:00 NR -15.4222 49.8501 PROVISIONAL 0 0 P_____________ SI122021 -15.4222 49.8501 42 996 0 90 65 70 77 1002 167 27 5 247
2021017S13062 2021 4 SI MM ELOISE 2021-01-20 00:00:00 NR -15.5000 49.6000 PROVISIONAL 0 0 O_____________ tcvitals SI122021 -15.5000 49.6000 39 997 0 85 50 50 75 998 155 25 6 271
2021017S13062 2021 4 SI MM ELOISE 2021-01-20 03:00:00 NR -15.4142 49.2772 PROVISIONAL 0 0 P_____________ SI122021 -15.4142 49.2772 37 1000 0 75 47 50 70 1002 152 25 9 283
2021017S13062 2021 4 SI MM ELOISE 2021-01-20 06:00:00 NR -15.3000 48.7000 PROVISIONAL 0 0 O_____________ tcvitals SI122021 -15.3000 48.7000 35 1003 0 65 45 50 65 1007 150 25 16 275
2021017S13062 2021 4 SI MM ELOISE 2021-01-20 09:00:00 NR -15.2637 47.6523 PROVISIONAL 0 0 P_____________ SI122021 -15.2637 47.6523 35 1001 0 1006 150 35 21 270
2021017S13062 2021 4 SI MM ELOISE 2021-01-20 12:00:00 NR -15.3000 46.5000 PROVISIONAL 15 15 O_____________ tcvitals SI122021 -15.3000 46.5000 35 1000 0 1006 150 45 19 267
2021017S13062 2021 4 SI MM ELOISE 2021-01-20 15:00:00 NR -15.3591 45.6618 PROVISIONAL 55 46 P_____________ SI122021 -15.3591 45.6618 35 1000 0 1006 140 72 16 259
2021017S13062 2021 4 SI MM ELOISE 2021-01-20 18:00:00 NR -15.6000 44.9000 PROVISIONAL 49 30 O_____________ tcvitals SI122021 -15.6000 44.9000 35 1001 0 110 75 110 1006 130 100 19 242
2021017S13062 2021 4 SI MM ELOISE 2021-01-20 21:00:00 NR -16.2381 43.9695 PROVISIONAL 44 44 P_____________ SI122021 -16.2381 43.9695 35 1001 0 105 85 115 1006 165 85 20 234
2021017S13062 2021 4 SI MM ELOISE 2021-01-21 00:00:00 NR -16.8000 43.2000 PROVISIONAL 105 105 O_____________ tcvitals SI122021 -16.8000 43.2000 35 1002 0 100 45 95 120 1006 200 70 12 243
2021017S13062 2021 4 SI MM ELOISE 2021-01-21 03:00:00 NR -16.7517 42.8964 PROVISIONAL 132 132 P_____________ SI122021 -16.7517 42.8964 35 1003 0 100 45 95 120 1007 205 65 5 293
2021017S13062 2021 4 SI MM ELOISE 2021-01-21 06:00:00 NR -16.6000 42.7000 PROVISIONAL 162 162 O_____________ tcvitals SI122021 -16.6000 42.7000 35 1004 0 100 45 95 120 1009 210 60 6 267
2021017S13062 2021 4 SI MM ELOISE 2021-01-21 09:00:00 NR -16.7827 42.2227 PROVISIONAL 196 196 P_____________ SI122021 -16.7827 42.2227 40 1001 0 100 67 92 110 1009 210 60 11 242
2021017S13062 2021 4 SI MM ELOISE 2021-01-21 12:00:00 NR -17.1000 41.7000 PROVISIONAL 207 188 O_____________ tcvitals SI122021 -17.1000 41.7000 45 999 0 100 90 90 100 1009 210 60 11 234
2021017S13062 2021 4 SI MM ELOISE 2021-01-21 15:00:00 NR -17.4474 41.2676 PROVISIONAL 188 185 P_____________ SI122021 -17.4474 41.2676 45 999 0 105 92 90 102 1009 210 60 10 227
2021017S13062 2021 4 SI MM ELOISE 2021-01-21 18:00:00 NR -17.8000 40.9000 PROVISIONAL 186 O_____________ tcvitals SI122021 -17.8000 40.9000 45 999 0 110 95 90 105 1009 210 60 10 225

IBTrACS Databaseについて

本データベースは、米国NOAAが公開する1842年以降の世界の熱帯低気圧のベストトラックデータアーカイブInternational Best Track Archive for Climate Stewardship (IBTrACS)を、ウェブで閲覧しやすい形式に変換したものです。

最終更新日:2021-10-08